This is the latest recevied weather packets stored in our database for station/object N9EA. If no packets are shown the sender has not sent any weather packets the latest 10 day(s).
| Time | Temp. | Humidity | Pressure | Rain* | Wind** | Luminosity | Snow |
|---|---|---|---|---|---|---|---|
| 1778165740 | 11.11° C | 58% | 1013.6 hPa | 0 mm | - | 49 W/m² | - |
| 1778165439 | 11.11° C | 57% | 1013.7 hPa | 0 mm | - | 63 W/m² | - |
| 1778165134 | 11.11° C | 55% | 1013.5 hPa | 0 mm | - | 77 W/m² | - |
| 1778164832 | 11.67° C | 53% | 1013.5 hPa | 0 mm | - | 97 W/m² | - |
| 1778164529 | 11.67° C | 52% | 1013.4 hPa | 0 mm | - | 111 W/m² | - |
| 1778164221 | 11.67° C | 51% | 1013.5 hPa | 0 mm | - | 96 W/m² | - |
| 1778163915 | 11.67° C | 52% | 1013.3 hPa | 0 mm | - | 90 W/m² | - |
| 1778163608 | 11.67° C | 51% | 1013.5 hPa | 0 mm | - | 104 W/m² | - |
| 1778163303 | 11.67° C | 50% | 1013.1 hPa | 0 mm | - | 87 W/m² | - |
| 1778163000 | 12.22° C | 49% | 1013.1 hPa | 0 mm | - | 65 W/m² | - |
| 1778162697 | 12.22° C | 49% | 1013 hPa | 0 mm | - | 93 W/m² | - |
| 1778162394 | 12.22° C | 49% | 1012.9 hPa | 0 mm | - | 245 W/m² | - |
| 1778162090 | 11.67° C | 50% | 1012.9 hPa | 0 mm | - | 168 W/m² | - |
| 1778161782 | 11.11° C | 51% | 1013 hPa | 0 mm | - | 391 W/m² | - |
| 1778161479 | 11.67° C | 50% | 1013 hPa | 0 mm | - | 102 W/m² | - |
| 1778161175 | 11.67° C | 51% | 1012.9 hPa | 0 mm | - | 162 W/m² | - |
| 1778160870 | 11.11° C | 52% | 1013 hPa | 0 mm | - | 338 W/m² | - |
| 1778160564 | 10.56° C | 53% | 1013.1 hPa | 0 mm | - | 261 W/m² | - |
| 1778160260 | 10.56° C | 54% | 1013.1 hPa | 0 mm | - | 240 W/m² | - |
| 1778159956 | 10° C | 55% | 1013.5 hPa | 0 mm | - | 231 W/m² | - |
| 1778159653 | 9.44° C | 57% | 1013.5 hPa | 0 mm | - | 222 W/m² | - |
| 1778159350 | 8.89° C | 58% | 1013.6 hPa | 0 mm | - | 155 W/m² | - |
| 1778159047 | 8.89° C | 58% | 1013.6 hPa | 0 mm | - | 167 W/m² | - |
| 1778158746 | 8.33° C | 59% | 1013.7 hPa | 0 mm | - | 115 W/m² | - |
| 1778158444 | 8.33° C | 62% | 1013.6 hPa | 0 mm | - | 127 W/m² | - |
* Rain latest hour (hover to see other rain measurements)
** Current wind speed in m/s (hover to see current wind gust speed)